sensor_id;sensor_type;location;lat;lon;timestamp;P1;durP1;ratioP1;P2;durP2;ratioP2
70545;SDS011;58098;51.680;5.134;2023-07-22T00:01:41;17.73;;;10.80;;
70545;SDS011;58098;51.680;5.134;2023-07-22T00:04:06;22.33;;;12.33;;
70545;SDS011;58098;51.680;5.134;2023-07-22T00:06:31;18.90;;;10.98;;
70545;SDS011;58098;51.680;5.134;2023-07-22T00:08:57;20.13;;;11.07;;
70545;SDS011;58098;51.680;5.134;2023-07-22T00:11:22;36.90;;;16.47;;
70545;SDS011;58098;51.680;5.134;2023-07-22T00:13:48;23.10;;;11.63;;
70545;SDS011;58098;51.680;5.134;2023-07-22T00:16:13;25.67;;;12.37;;
70545;SDS011;58098;51.680;5.134;2023-07-22T00:18:38;18.77;;;11.63;;
70545;SDS011;58098;51.680;5.134;2023-07-22T00:21:04;24.00;;;12.13;;
70545;SDS011;58098;51.680;5.134;2023-07-22T00:23:29;20.00;;;11.13;;
70545;SDS011;58098;51.680;5.134;2023-07-22T00:25:55;23.70;;;11.83;;
70545;SDS011;58098;51.680;5.134;2023-07-22T00:28:20;23.13;;;11.60;;
70545;SDS011;58098;51.680;5.134;2023-07-22T00:30:45;18.23;;;9.90;;
70545;SDS011;58098;51.680;5.134;2023-07-22T00:33:10;19.50;;;11.30;;
70545;SDS011;58098;51.680;5.134;2023-07-22T00:35:36;22.83;;;12.20;;
70545;SDS011;58098;51.680;5.134;2023-07-22T00:38:01;22.03;;;12.47;;
70545;SDS011;58098;51.680;5.134;2023-07-22T00:40:29;25.45;;;12.15;;
70545;SDS011;58098;51.680;5.134;2023-07-22T00:42:57;23.02;;;11.98;;
70545;SDS011;58098;51.680;5.134;2023-07-22T00:45:24;24.00;;;13.07;;
70545;SDS011;58098;51.680;5.134;2023-07-22T00:47:49;22.35;;;11.90;;
70545;SDS011;58098;51.680;5.134;2023-07-22T00:50:15;23.00;;;12.70;;
70545;SDS011;58098;51.680;5.134;2023-07-22T00:52:40;20.33;;;11.43;;
70545;SDS011;58098;51.680;5.134;2023-07-22T00:55:06;27.48;;;12.85;;
70545;SDS011;58098;51.680;5.134;2023-07-22T00:57:32;26.15;;;12.45;;
70545;SDS011;58098;51.680;5.134;2023-07-22T00:59:57;24.27;;;12.10;;
70545;SDS011;58098;51.680;5.134;2023-07-22T01:02:22;22.17;;;12.50;;
70545;SDS011;58098;51.680;5.134;2023-07-22T01:04:51;23.33;;;12.70;;
70545;SDS011;58098;51.680;5.134;2023-07-22T01:07:17;22.85;;;11.85;;
70545;SDS011;58098;51.680;5.134;2023-07-22T01:09:42;23.33;;;12.48;;
70545;SDS011;58098;51.680;5.134;2023-07-22T01:12:08;18.60;;;11.00;;
70545;SDS011;58098;51.680;5.134;2023-07-22T01:14:35;22.52;;;11.85;;
70545;SDS011;58098;51.680;5.134;2023-07-22T01:17:02;27.15;;;12.05;;
70545;SDS011;58098;51.680;5.134;2023-07-22T01:19:29;20.40;;;11.33;;
70545;SDS011;58098;51.680;5.134;2023-07-22T01:21:57;23.00;;;11.35;;
70545;SDS011;58098;51.680;5.134;2023-07-22T01:24:25;27.90;;;13.57;;
70545;SDS011;58098;51.680;5.134;2023-07-22T01:26:50;21.40;;;11.30;;
70545;SDS011;58098;51.680;5.134;2023-07-22T01:29:16;23.47;;;11.57;;
70545;SDS011;58098;51.680;5.134;2023-07-22T01:31:41;20.43;;;11.60;;
70545;SDS011;58098;51.680;5.134;2023-07-22T01:34:06;23.70;;;12.47;;
70545;SDS011;58098;51.680;5.134;2023-07-22T01:36:32;16.87;;;9.60;;
70545;SDS011;58098;51.680;5.134;2023-07-22T01:38:57;21.90;;;12.67;;
70545;SDS011;58098;51.680;5.134;2023-07-22T01:41:22;23.97;;;12.57;;
70545;SDS011;58098;51.680;5.134;2023-07-22T01:43:48;22.63;;;11.80;;
70545;SDS011;58098;51.680;5.134;2023-07-22T01:46:14;25.92;;;11.82;;
70545;SDS011;58098;51.680;5.134;2023-07-22T01:48:39;21.60;;;11.53;;
70545;SDS011;58098;51.680;5.134;2023-07-22T01:51:04;25.00;;;12.27;;
70545;SDS011;58098;51.680;5.134;2023-07-22T01:53:30;23.48;;;12.80;;
70545;SDS011;58098;51.680;5.134;2023-07-22T01:55:55;23.20;;;11.00;;
70545;SDS011;58098;51.680;5.134;2023-07-22T01:58:21;22.80;;;11.97;;
70545;SDS011;58098;51.680;5.134;2023-07-22T02:00:50;22.13;;;12.00;;
70545;SDS011;58098;51.680;5.134;2023-07-22T02:03:15;24.55;;;12.30;;
70545;SDS011;58098;51.680;5.134;2023-07-22T02:05:40;26.07;;;12.83;;
70545;SDS011;58098;51.680;5.134;2023-07-22T02:08:06;24.27;;;13.00;;
70545;SDS011;58098;51.680;5.134;2023-07-22T02:10:31;28.10;;;13.60;;
70545;SDS011;58098;51.680;5.134;2023-07-22T02:12:56;27.97;;;13.23;;
70545;SDS011;58098;51.680;5.134;2023-07-22T02:15:23;27.35;;;12.63;;
70545;SDS011;58098;51.680;5.134;2023-07-22T02:17:49;25.77;;;12.73;;
70545;SDS011;58098;51.680;5.134;2023-07-22T02:20:15;25.55;;;12.45;;
70545;SDS011;58098;51.680;5.134;2023-07-22T02:22:41;24.83;;;12.20;;
70545;SDS011;58098;51.680;5.134;2023-07-22T02:25:06;26.23;;;12.40;;
70545;SDS011;58098;51.680;5.134;2023-07-22T02:27:32;23.27;;;11.80;;
70545;SDS011;58098;51.680;5.134;2023-07-22T02:29:57;25.70;;;11.35;;
70545;SDS011;58098;51.680;5.134;2023-07-22T02:32:23;26.30;;;12.27;;
70545;SDS011;58098;51.680;5.134;2023-07-22T02:34:48;26.70;;;13.17;;
70545;SDS011;58098;51.680;5.134;2023-07-22T02:37:13;26.43;;;12.40;;
70545;SDS011;58098;51.680;5.134;2023-07-22T02:39:39;20.17;;;11.10;;
70545;SDS011;58098;51.680;5.134;2023-07-22T02:42:04;26.60;;;12.93;;
70545;SDS011;58098;51.680;5.134;2023-07-22T02:44:30;24.38;;;11.85;;
70545;SDS011;58098;51.680;5.134;2023-07-22T02:46:55;28.17;;;13.47;;
70545;SDS011;58098;51.680;5.134;2023-07-22T02:49:20;30.40;;;13.77;;
70545;SDS011;58098;51.680;5.134;2023-07-22T02:51:46;29.70;;;13.63;;
70545;SDS011;58098;51.680;5.134;2023-07-22T02:54:11;26.17;;;13.03;;
70545;SDS011;58098;51.680;5.134;2023-07-22T02:56:36;24.60;;;12.45;;
70545;SDS011;58098;51.680;5.134;2023-07-22T02:59:02;22.77;;;11.33;;
70545;SDS011;58098;51.680;5.134;2023-07-22T03:01:27;28.50;;;13.77;;
70545;SDS011;58098;51.680;5.134;2023-07-22T03:03:54;23.08;;;12.38;;
70545;SDS011;58098;51.680;5.134;2023-07-22T03:06:19;25.27;;;12.57;;
70545;SDS011;58098;51.680;5.134;2023-07-22T03:08:45;27.83;;;13.57;;
70545;SDS011;58098;51.680;5.134;2023-07-22T03:11:10;27.75;;;13.05;;
70545;SDS011;58098;51.680;5.134;2023-07-22T03:13:35;28.90;;;14.23;;
70545;SDS011;58098;51.680;5.134;2023-07-22T03:16:01;23.10;;;11.90;;
70545;SDS011;58098;51.680;5.134;2023-07-22T03:18:30;29.13;;;13.80;;
70545;SDS011;58098;51.680;5.134;2023-07-22T03:20:56;28.42;;;13.40;;
70545;SDS011;58098;51.680;5.134;2023-07-22T03:23:22;29.27;;;13.67;;
70545;SDS011;58098;51.680;5.134;2023-07-22T03:25:47;25.43;;;12.80;;
70545;SDS011;58098;51.680;5.134;2023-07-22T03:28:13;28.42;;;13.63;;
70545;SDS011;58098;51.680;5.134;2023-07-22T03:30:38;32.60;;;14.20;;
70545;SDS011;58098;51.680;5.134;2023-07-22T03:33:03;29.00;;;14.10;;
70545;SDS011;58098;51.680;5.134;2023-07-22T03:35:29;29.80;;;13.43;;
70545;SDS011;58098;51.680;5.134;2023-07-22T03:37:54;27.07;;;13.00;;
70545;SDS011;58098;51.680;5.134;2023-07-22T03:40:20;30.23;;;13.23;;
70545;SDS011;58098;51.680;5.134;2023-07-22T03:42:47;33.38;;;14.68;;
70545;SDS011;58098;51.680;5.134;2023-07-22T03:45:13;28.63;;;13.27;;
70545;SDS011;58098;51.680;5.134;2023-07-22T03:47:39;29.67;;;15.70;;
70545;SDS011;58098;51.680;5.134;2023-07-22T03:50:05;25.35;;;13.95;;
70545;SDS011;58098;51.680;5.134;2023-07-22T03:52:31;35.00;;;15.88;;
70545;SDS011;58098;51.680;5.134;2023-07-22T03:54:57;34.20;;;15.83;;
70545;SDS011;58098;51.680;5.134;2023-07-22T03:57:25;31.63;;;15.97;;
70545;SDS011;58098;51.680;5.134;2023-07-22T03:59:52;28.83;;;15.35;;
70545;SDS011;58098;51.680;5.134;2023-07-22T04:02:18;31.48;;;15.73;;
70545;SDS011;58098;51.680;5.134;2023-07-22T04:04:43;32.77;;;15.93;;
70545;SDS011;58098;51.680;5.134;2023-07-22T04:07:08;34.57;;;16.47;;
70545;SDS011;58098;51.680;5.134;2023-07-22T04:09:34;30.93;;;15.17;;
70545;SDS011;58098;51.680;5.134;2023-07-22T04:12:00;32.78;;;15.68;;
70545;SDS011;58098;51.680;5.134;2023-07-22T04:14:25;34.07;;;15.77;;
70545;SDS011;58098;51.680;5.134;2023-07-22T04:16:50;28.13;;;15.43;;
70545;SDS011;58098;51.680;5.134;2023-07-22T04:19:16;33.37;;;15.13;;
70545;SDS011;58098;51.680;5.134;2023-07-22T04:21:41;30.23;;;15.32;;
70545;SDS011;58098;51.680;5.134;2023-07-22T04:24:07;29.80;;;14.10;;
70545;SDS011;58098;51.680;5.134;2023-07-22T04:26:32;28.97;;;15.00;;
70545;SDS011;58098;51.680;5.134;2023-07-22T04:28:58;30.40;;;14.87;;
70545;SDS011;58098;51.680;5.134;2023-07-22T04:31:24;32.60;;;16.02;;
70545;SDS011;58098;51.680;5.134;2023-07-22T04:33:49;29.93;;;14.70;;
70545;SDS011;58098;51.680;5.134;2023-07-22T04:36:15;32.87;;;15.83;;
70545;SDS011;58098;51.680;5.134;2023-07-22T04:38:40;29.27;;;15.13;;
70545;SDS011;58098;51.680;5.134;2023-07-22T04:41:06;27.47;;;13.23;;
70545;SDS011;58098;51.680;5.134;2023-07-22T04:43:31;31.67;;;15.10;;
70545;SDS011;58098;51.680;5.134;2023-07-22T04:45:57;25.83;;;13.30;;
70545;SDS011;58098;51.680;5.134;2023-07-22T04:48:23;28.20;;;14.90;;
70545;SDS011;58098;51.680;5.134;2023-07-22T04:50:48;25.63;;;13.33;;
70545;SDS011;58098;51.680;5.134;2023-07-22T04:53:15;24.90;;;12.73;;
70545;SDS011;58098;51.680;5.134;2023-07-22T04:55:42;24.33;;;12.82;;
70545;SDS011;58098;51.680;5.134;2023-07-22T04:58:07;32.47;;;15.47;;
70545;SDS011;58098;51.680;5.134;2023-07-22T05:00:34;27.25;;;14.27;;
70545;SDS011;58098;51.680;5.134;2023-07-22T05:03:02;28.05;;;14.10;;
70545;SDS011;58098;51.680;5.134;2023-07-22T05:05:27;26.73;;;13.43;;
70545;SDS011;58098;51.680;5.134;2023-07-22T05:07:53;24.20;;;13.20;;
70545;SDS011;58098;51.680;5.134;2023-07-22T05:10:18;29.08;;;13.48;;
70545;SDS011;58098;51.680;5.134;2023-07-22T05:12:44;25.27;;;13.33;;
70545;SDS011;58098;51.680;5.134;2023-07-22T05:15:10;24.73;;;13.13;;
70545;SDS011;58098;51.680;5.134;2023-07-22T05:17:36;25.38;;;12.85;;
70545;SDS011;58098;51.680;5.134;2023-07-22T05:20:02;29.47;;;14.60;;
70545;SDS011;58098;51.680;5.134;2023-07-22T05:22:29;28.15;;;13.68;;
70545;SDS011;58098;51.680;5.134;2023-07-22T05:24:54;24.30;;;12.95;;
70545;SDS011;58098;51.680;5.134;2023-07-22T05:27:20;23.47;;;12.67;;
70545;SDS011;58098;51.680;5.134;2023-07-22T05:29:46;28.75;;;12.98;;
70545;SDS011;58098;51.680;5.134;2023-07-22T05:32:11;24.77;;;12.70;;
70545;SDS011;58098;51.680;5.134;2023-07-22T05:34:37;23.73;;;11.37;;
70545;SDS011;58098;51.680;5.134;2023-07-22T05:37:02;30.33;;;12.07;;
70545;SDS011;58098;51.680;5.134;2023-07-22T05:39:27;28.20;;;13.27;;
70545;SDS011;58098;51.680;5.134;2023-07-22T05:41:53;23.08;;;11.82;;
70545;SDS011;58098;51.680;5.134;2023-07-22T05:44:18;23.27;;;12.67;;
70545;SDS011;58098;51.680;5.134;2023-07-22T05:46:44;29.07;;;13.67;;
70545;SDS011;58098;51.680;5.134;2023-07-22T05:49:09;23.33;;;11.53;;
70545;SDS011;58098;51.680;5.134;2023-07-22T05:51:35;24.15;;;13.38;;
70545;SDS011;58098;51.680;5.134;2023-07-22T05:54:01;23.60;;;12.43;;
70545;SDS011;58098;51.680;5.134;2023-07-22T05:56:26;23.00;;;12.27;;
70545;SDS011;58098;51.680;5.134;2023-07-22T05:58:51;25.40;;;13.60;;
70545;SDS011;58098;51.680;5.134;2023-07-22T06:01:17;26.40;;;13.57;;
70545;SDS011;58098;51.680;5.134;2023-07-22T06:03:42;25.40;;;13.20;;
70545;SDS011;58098;51.680;5.134;2023-07-22T06:06:08;27.00;;;13.47;;
70545;SDS011;58098;51.680;5.134;2023-07-22T06:08:34;27.17;;;12.68;;
70545;SDS011;58098;51.680;5.134;2023-07-22T06:11:00;25.90;;;12.80;;
70545;SDS011;58098;51.680;5.134;2023-07-22T06:13:25;28.83;;;13.38;;
70545;SDS011;58098;51.680;5.134;2023-07-22T06:15:51;25.75;;;12.85;;
70545;SDS011;58098;51.680;5.134;2023-07-22T06:18:17;24.37;;;12.53;;
70545;SDS011;58098;51.680;5.134;2023-07-22T06:20:43;25.27;;;13.15;;
70545;SDS011;58098;51.680;5.134;2023-07-22T06:23:09;26.00;;;12.77;;
70545;SDS011;58098;51.680;5.134;2023-07-22T06:25:34;22.40;;;11.50;;
70545;SDS011;58098;51.680;5.134;2023-07-22T06:28:01;20.17;;;11.73;;
70545;SDS011;58098;51.680;5.134;2023-07-22T06:30:26;22.63;;;12.38;;
70545;SDS011;58098;51.680;5.134;2023-07-22T06:32:52;28.33;;;12.50;;
70545;SDS011;58098;51.680;5.134;2023-07-22T06:35:18;26.23;;;12.40;;
70545;SDS011;58098;51.680;5.134;2023-07-22T06:37:43;22.10;;;11.33;;
70545;SDS011;58098;51.680;5.134;2023-07-22T06:40:08;24.33;;;12.23;;
70545;SDS011;58098;51.680;5.134;2023-07-22T06:42:34;20.47;;;11.40;;
70545;SDS011;58098;51.680;5.134;2023-07-22T06:44:59;25.20;;;12.23;;
70545;SDS011;58098;51.680;5.134;2023-07-22T06:47:25;25.17;;;11.83;;
70545;SDS011;58098;51.680;5.134;2023-07-22T06:49:50;26.47;;;12.37;;
70545;SDS011;58098;51.680;5.134;2023-07-22T06:52:15;26.00;;;12.30;;
70545;SDS011;58098;51.680;5.134;2023-07-22T06:54:41;23.15;;;11.93;;
70545;SDS011;58098;51.680;5.134;2023-07-22T06:57:07;23.37;;;11.90;;
70545;SDS011;58098;51.680;5.134;2023-07-22T06:59:32;23.55;;;11.20;;
70545;SDS011;58098;51.680;5.134;2023-07-22T07:01:58;24.87;;;11.43;;
70545;SDS011;58098;51.680;5.134;2023-07-22T07:04:24;23.98;;;11.55;;
70545;SDS011;58098;51.680;5.134;2023-07-22T07:06:49;23.93;;;10.60;;
70545;SDS011;58098;51.680;5.134;2023-07-22T07:09:15;22.67;;;10.67;;
70545;SDS011;58098;51.680;5.134;2023-07-22T07:11:40;21.23;;;11.07;;
70545;SDS011;58098;51.680;5.134;2023-07-22T07:14:06;25.77;;;10.67;;
70545;SDS011;58098;51.680;5.134;2023-07-22T07:16:31;23.70;;;11.23;;
70545;SDS011;58098;51.680;5.134;2023-07-22T07:18:59;23.52;;;10.60;;
70545;SDS011;58098;51.680;5.134;2023-07-22T07:21:25;24.55;;;11.40;;
70545;SDS011;58098;51.680;5.134;2023-07-22T07:23:52;20.73;;;11.57;;
70545;SDS011;58098;51.680;5.134;2023-07-22T07:26:19;23.38;;;10.95;;
70545;SDS011;58098;51.680;5.134;2023-07-22T07:28:45;25.57;;;10.90;;
70545;SDS011;58098;51.680;5.134;2023-07-22T07:31:12;22.63;;;10.80;;
70545;SDS011;58098;51.680;5.134;2023-07-22T07:33:37;24.67;;;11.45;;
70545;SDS011;58098;51.680;5.134;2023-07-22T07:36:03;24.80;;;11.87;;
70545;SDS011;58098;51.680;5.134;2023-07-22T07:38:30;21.65;;;10.38;;
70545;SDS011;58098;51.680;5.134;2023-07-22T07:40:58;18.87;;;10.87;;
70545;SDS011;58098;51.680;5.134;2023-07-22T07:43:25;21.17;;;10.20;;
70545;SDS011;58098;51.680;5.134;2023-07-22T07:46:11;23.63;;;10.70;;
70545;SDS011;58098;51.680;5.134;2023-07-22T07:48:43;18.48;;;10.30;;
70545;SDS011;58098;51.680;5.134;2023-07-22T07:51:15;16.60;;;9.80;;
70545;SDS011;58098;51.680;5.134;2023-07-22T07:53:42;17.45;;;9.32;;
70545;SDS011;58098;51.680;5.134;2023-07-22T07:56:15;18.08;;;9.18;;
70545;SDS011;58098;51.680;5.134;2023-07-22T07:58:41;20.90;;;9.68;;
70545;SDS011;58098;51.680;5.134;2023-07-22T08:01:07;19.73;;;9.77;;
70545;SDS011;58098;51.680;5.134;2023-07-22T08:03:33;22.53;;;10.17;;
70545;SDS011;58098;51.680;5.134;2023-07-22T08:06:00;15.70;;;8.65;;
70545;SDS011;58098;51.680;5.134;2023-07-22T08:08:25;22.27;;;9.47;;
70545;SDS011;58098;51.680;5.134;2023-07-22T08:10:57;18.03;;;9.47;;
70545;SDS011;58098;51.680;5.134;2023-07-22T08:13:33;20.20;;;10.07;;
70545;SDS011;58098;51.680;5.134;2023-07-22T08:16:06;21.80;;;9.30;;
70545;SDS011;58098;51.680;5.134;2023-07-22T08:18:33;21.02;;;9.68;;
70545;SDS011;58098;51.680;5.134;2023-07-22T08:21:00;16.85;;;8.57;;
70545;SDS011;58098;51.680;5.134;2023-07-22T08:23:31;20.08;;;9.05;;
70545;SDS011;58098;51.680;5.134;2023-07-22T08:25:56;19.10;;;8.23;;
70545;SDS011;58098;51.680;5.134;2023-07-22T08:28:22;16.93;;;8.30;;
70545;SDS011;58098;51.680;5.134;2023-07-22T08:30:47;16.23;;;7.60;;
70545;SDS011;58098;51.680;5.134;2023-07-22T08:33:13;15.68;;;7.68;;
70545;SDS011;58098;51.680;5.134;2023-07-22T08:35:39;15.07;;;6.90;;
70545;SDS011;58098;51.680;5.134;2023-07-22T08:38:05;16.70;;;7.93;;
70545;SDS011;58098;51.680;5.134;2023-07-22T08:40:38;14.27;;;7.28;;
70545;SDS011;58098;51.680;5.134;2023-07-22T08:43:06;17.27;;;6.93;;
70545;SDS011;58098;51.680;5.134;2023-07-22T08:45:34;10.93;;;6.05;;
70545;SDS011;58098;51.680;5.134;2023-07-22T08:48:04;14.18;;;6.25;;
70545;SDS011;58098;51.680;5.134;2023-07-22T08:50:34;12.27;;;6.35;;
70545;SDS011;58098;51.680;5.134;2023-07-22T08:53:08;14.27;;;6.28;;
70545;SDS011;58098;51.680;5.134;2023-07-22T08:55:35;10.50;;;5.60;;
70545;SDS011;58098;51.680;5.134;2023-07-22T08:58:01;16.70;;;6.55;;
70545;SDS011;58098;51.680;5.134;2023-07-22T09:00:28;15.68;;;6.22;;
70545;SDS011;58098;51.680;5.134;2023-07-22T09:02:54;9.30;;;6.03;;
70545;SDS011;58098;51.680;5.134;2023-07-22T09:05:20;10.43;;;6.30;;
70545;SDS011;58098;51.680;5.134;2023-07-22T09:07:47;13.25;;;5.95;;
70545;SDS011;58098;51.680;5.134;2023-07-22T09:10:13;16.02;;;5.85;;
70545;SDS011;58098;51.680;5.134;2023-07-22T09:12:40;12.73;;;5.47;;
70545;SDS011;58098;51.680;5.134;2023-07-22T09:15:10;10.27;;;4.83;;
70545;SDS011;58098;51.680;5.134;2023-07-22T09:17:40;11.65;;;5.10;;
70545;SDS011;58098;51.680;5.134;2023-07-22T09:20:06;10.00;;;5.43;;
70545;SDS011;58098;51.680;5.134;2023-07-22T09:22:32;9.75;;;4.55;;
70545;SDS011;58098;51.680;5.134;2023-07-22T09:27:39;8.80;;;5.10;;
70545;SDS011;58098;51.680;5.134;2023-07-22T09:30:19;9.43;;;5.00;;
70545;SDS011;58098;51.680;5.134;2023-07-22T09:32:53;9.27;;;4.57;;
70545;SDS011;58098;51.680;5.134;2023-07-22T09:35:20;9.20;;;4.50;;
70545;SDS011;58098;51.680;5.134;2023-07-22T09:37:46;8.35;;;4.40;;
70545;SDS011;58098;51.680;5.134;2023-07-22T09:42:55;8.20;;;4.10;;
70545;SDS011;58098;51.680;5.134;2023-07-22T09:45:23;12.68;;;3.88;;
70545;SDS011;58098;51.680;5.134;2023-07-22T09:47:50;13.40;;;5.17;;
70545;SDS011;58098;51.680;5.134;2023-07-22T09:50:18;8.68;;;4.10;;
70545;SDS011;58098;51.680;5.134;2023-07-22T09:52:48;6.72;;;3.72;;
70545;SDS011;58098;51.680;5.134;2023-07-22T09:55:15;6.43;;;3.72;;
70545;SDS011;58098;51.680;5.134;2023-07-22T09:57:44;8.98;;;4.18;;
70545;SDS011;58098;51.680;5.134;2023-07-22T10:00:12;9.33;;;3.90;;
70545;SDS011;58098;51.680;5.134;2023-07-22T10:02:40;12.57;;;4.82;;
70545;SDS011;58098;51.680;5.134;2023-07-22T10:05:09;11.27;;;4.53;;
70545;SDS011;58098;51.680;5.134;2023-07-22T10:07:38;9.88;;;4.20;;
70545;SDS011;58098;51.680;5.134;2023-07-22T10:10:07;11.57;;;4.18;;
70545;SDS011;58098;51.680;5.134;2023-07-22T10:12:33;11.00;;;4.30;;
70545;SDS011;58098;51.680;5.134;2023-07-22T10:14:59;8.88;;;4.28;;
70545;SDS011;58098;51.680;5.134;2023-07-22T10:17:26;9.63;;;4.30;;
70545;SDS011;58098;51.680;5.134;2023-07-22T10:19:53;12.65;;;4.05;;
70545;SDS011;58098;51.680;5.134;2023-07-22T10:22:19;8.40;;;4.38;;
70545;SDS011;58098;51.680;5.134;2023-07-22T10:24:45;8.97;;;4.20;;
70545;SDS011;58098;51.680;5.134;2023-07-22T10:27:12;9.07;;;4.22;;
70545;SDS011;58098;51.680;5.134;2023-07-22T10:29:40;8.80;;;4.35;;
70545;SDS011;58098;51.680;5.134;2023-07-22T10:32:06;11.25;;;4.13;;
70545;SDS011;58098;51.680;5.134;2023-07-22T10:34:32;8.90;;;3.90;;
70545;SDS011;58098;51.680;5.134;2023-07-22T10:36:57;7.57;;;3.23;;
70545;SDS011;58098;51.680;5.134;2023-07-22T10:39:26;7.15;;;3.83;;
70545;SDS011;58098;51.680;5.134;2023-07-22T10:41:59;7.27;;;3.50;;
70545;SDS011;58098;51.680;5.134;2023-07-22T10:44:26;10.30;;;3.90;;
70545;SDS011;58098;51.680;5.134;2023-07-22T10:46:58;6.70;;;3.30;;
70545;SDS011;58098;51.680;5.134;2023-07-22T10:49:24;10.80;;;3.83;;
70545;SDS011;58098;51.680;5.134;2023-07-22T10:51:52;6.63;;;3.95;;
70545;SDS011;58098;51.680;5.134;2023-07-22T10:54:33;8.77;;;3.20;;
70545;SDS011;58098;51.680;5.134;2023-07-22T10:57:22;7.90;;;3.65;;
70545;SDS011;58098;51.680;5.134;2023-07-22T10:59:50;8.73;;;3.20;;
70545;SDS011;58098;51.680;5.134;2023-07-22T11:02:26;6.28;;;3.13;;
70545;SDS011;58098;51.680;5.134;2023-07-22T11:04:55;8.43;;;2.83;;
70545;SDS011;58098;51.680;5.134;2023-07-22T11:07:32;5.37;;;2.80;;
70545;SDS011;58098;51.680;5.134;2023-07-22T11:10:10;10.35;;;3.10;;
70545;SDS011;58098;51.680;5.134;2023-07-22T11:12:38;5.55;;;2.40;;
70545;SDS011;58098;51.680;5.134;2023-07-22T11:15:04;7.28;;;3.15;;
70545;SDS011;58098;51.680;5.134;2023-07-22T11:17:31;6.50;;;3.10;;
70545;SDS011;58098;51.680;5.134;2023-07-22T11:19:58;8.63;;;2.80;;
70545;SDS011;58098;51.680;5.134;2023-07-22T11:22:25;8.05;;;2.88;;
70545;SDS011;58098;51.680;5.134;2023-07-22T11:24:50;4.28;;;2.80;;
70545;SDS011;58098;51.680;5.134;2023-07-22T11:27:17;10.07;;;3.00;;
70545;SDS011;58098;51.680;5.134;2023-07-22T11:29:43;7.55;;;2.90;;
70545;SDS011;58098;51.680;5.134;2023-07-22T11:32:14;5.93;;;2.80;;
70545;SDS011;58098;51.680;5.134;2023-07-22T11:34:41;10.75;;;2.90;;
70545;SDS011;58098;51.680;5.134;2023-07-22T11:37:09;8.17;;;3.00;;
70545;SDS011;58098;51.680;5.134;2023-07-22T11:39:34;5.22;;;2.72;;
70545;SDS011;58098;51.680;5.134;2023-07-22T11:42:01;4.63;;;2.77;;
70545;SDS011;58098;51.680;5.134;2023-07-22T11:44:28;9.52;;;3.10;;
70545;SDS011;58098;51.680;5.134;2023-07-22T11:46:57;6.28;;;3.03;;
70545;SDS011;58098;51.680;5.134;2023-07-22T11:51:50;7.10;;;3.20;;
70545;SDS011;58098;51.680;5.134;2023-07-22T11:54:16;5.68;;;2.85;;
70545;SDS011;58098;51.680;5.134;2023-07-22T11:56:42;4.97;;;2.65;;
70545;SDS011;58098;51.680;5.134;2023-07-22T11:59:07;5.73;;;2.73;;
70545;SDS011;58098;51.680;5.134;2023-07-22T12:01:33;7.38;;;2.92;;
70545;SDS011;58098;51.680;5.134;2023-07-22T12:03:59;6.93;;;2.67;;
70545;SDS011;58098;51.680;5.134;2023-07-22T12:06:24;5.60;;;2.77;;
70545;SDS011;58098;51.680;5.134;2023-07-22T12:08:51;8.57;;;2.83;;
70545;SDS011;58098;51.680;5.134;2023-07-22T12:11:21;7.38;;;3.20;;
70545;SDS011;58098;51.680;5.134;2023-07-22T12:13:50;5.07;;;2.90;;
70545;SDS011;58098;51.680;5.134;2023-07-22T12:16:39;7.68;;;3.15;;
70545;SDS011;58098;51.680;5.134;2023-07-22T12:19:07;6.27;;;3.20;;
70545;SDS011;58098;51.680;5.134;2023-07-22T12:21:34;5.30;;;2.90;;
70545;SDS011;58098;51.680;5.134;2023-07-22T12:24:00;5.47;;;2.80;;
70545;SDS011;58098;51.680;5.134;2023-07-22T12:26:26;9.48;;;3.20;;
70545;SDS011;58098;51.680;5.134;2023-07-22T12:28:51;6.83;;;3.40;;
70545;SDS011;58098;51.680;5.134;2023-07-22T12:31:17;5.63;;;3.20;;
70545;SDS011;58098;51.680;5.134;2023-07-22T12:33:42;7.30;;;2.72;;
70545;SDS011;58098;51.680;5.134;2023-07-22T12:36:08;5.70;;;2.77;;
70545;SDS011;58098;51.680;5.134;2023-07-22T12:38:33;6.80;;;2.90;;
70545;SDS011;58098;51.680;5.134;2023-07-22T12:41:00;7.07;;;3.13;;
70545;SDS011;58098;51.680;5.134;2023-07-22T12:43:25;7.30;;;3.53;;
70545;SDS011;58098;51.680;5.134;2023-07-22T12:45:51;10.37;;;3.07;;
70545;SDS011;58098;51.680;5.134;2023-07-22T12:48:16;7.40;;;3.00;;
70545;SDS011;58098;51.680;5.134;2023-07-22T12:50:42;5.60;;;3.20;;
70545;SDS011;58098;51.680;5.134;2023-07-22T12:53:12;5.85;;;3.30;;
70545;SDS011;58098;51.680;5.134;2023-07-22T12:55:38;6.50;;;3.07;;
70545;SDS011;58098;51.680;5.134;2023-07-22T12:58:03;6.35;;;3.08;;
70545;SDS011;58098;51.680;5.134;2023-07-22T13:00:28;7.63;;;3.10;;
70545;SDS011;58098;51.680;5.134;2023-07-22T13:02:54;6.57;;;3.30;;
70545;SDS011;58098;51.680;5.134;2023-07-22T13:05:21;5.40;;;2.60;;
70545;SDS011;58098;51.680;5.134;2023-07-22T13:07:47;9.77;;;3.13;;
70545;SDS011;58098;51.680;5.134;2023-07-22T13:10:12;5.47;;;2.80;;
70545;SDS011;58098;51.680;5.134;2023-07-22T13:12:41;9.27;;;3.00;;
70545;SDS011;58098;51.680;5.134;2023-07-22T13:15:07;9.43;;;3.17;;
70545;SDS011;58098;51.680;5.134;2023-07-22T13:17:32;9.43;;;3.45;;
70545;SDS011;58098;51.680;5.134;2023-07-22T13:19:58;6.37;;;3.10;;
70545;SDS011;58098;51.680;5.134;2023-07-22T13:22:23;7.70;;;3.40;;
70545;SDS011;58098;51.680;5.134;2023-07-22T13:24:49;6.30;;;3.37;;
70545;SDS011;58098;51.680;5.134;2023-07-22T13:27:14;7.73;;;3.27;;
70545;SDS011;58098;51.680;5.134;2023-07-22T13:29:39;9.80;;;3.57;;
70545;SDS011;58098;51.680;5.134;2023-07-22T13:32:05;6.73;;;2.93;;
70545;SDS011;58098;51.680;5.134;2023-07-22T13:34:31;7.82;;;3.17;;
70545;SDS011;58098;51.680;5.134;2023-07-22T13:36:56;6.83;;;2.77;;
70545;SDS011;58098;51.680;5.134;2023-07-22T13:39:22;7.00;;;2.97;;
70545;SDS011;58098;51.680;5.134;2023-07-22T13:41:47;5.63;;;2.87;;
70545;SDS011;58098;51.680;5.134;2023-07-22T13:44:12;5.33;;;3.00;;
70545;SDS011;58098;51.680;5.134;2023-07-22T13:46:40;8.13;;;3.30;;
70545;SDS011;58098;51.680;5.134;2023-07-22T13:49:05;5.20;;;3.00;;
70545;SDS011;58098;51.680;5.134;2023-07-22T13:51:30;7.70;;;3.40;;
70545;SDS011;58098;51.680;5.134;2023-07-22T13:53:55;7.53;;;3.10;;
70545;SDS011;58098;51.680;5.134;2023-07-22T13:56:23;11.00;;;2.88;;
70545;SDS011;58098;51.680;5.134;2023-07-22T13:58:49;5.47;;;2.97;;
70545;SDS011;58098;51.680;5.134;2023-07-22T14:01:14;8.83;;;3.33;;
70545;SDS011;58098;51.680;5.134;2023-07-22T14:03:39;8.45;;;3.30;;
70545;SDS011;58098;51.680;5.134;2023-07-22T14:06:05;4.93;;;3.03;;
70545;SDS011;58098;51.680;5.134;2023-07-22T14:08:30;9.80;;;3.00;;
70545;SDS011;58098;51.680;5.134;2023-07-22T14:10:55;12.47;;;3.30;;
70545;SDS011;58098;51.680;5.134;2023-07-22T14:13:21;7.67;;;3.50;;
70545;SDS011;58098;51.680;5.134;2023-07-22T14:15:46;9.37;;;3.33;;
70545;SDS011;58098;51.680;5.134;2023-07-22T14:18:11;5.60;;;2.93;;
70545;SDS011;58098;51.680;5.134;2023-07-22T14:20:41;7.50;;;3.33;;
70545;SDS011;58098;51.680;5.134;2023-07-22T14:23:07;7.38;;;2.70;;
70545;SDS011;58098;51.680;5.134;2023-07-22T14:25:32;8.33;;;2.70;;
70545;SDS011;58098;51.680;5.134;2023-07-22T14:27:58;6.77;;;2.77;;
70545;SDS011;58098;51.680;5.134;2023-07-22T14:30:23;7.83;;;3.10;;
70545;SDS011;58098;51.680;5.134;2023-07-22T14:32:48;7.30;;;2.87;;
70545;SDS011;58098;51.680;5.134;2023-07-22T14:35:14;7.30;;;3.30;;